sensor_id;sensor_type;location;lat;lon;timestamp;P1;durP1;ratioP1;P2;durP2;ratioP2
66421;SDS011;53228;51.380;0.098;2022-07-29T00:02:27;3.88;;;2.15;;
66421;SDS011;53228;51.380;0.098;2022-07-29T00:04:55;5.35;;;2.38;;
66421;SDS011;53228;51.380;0.098;2022-07-29T00:07:22;5.72;;;2.63;;
66421;SDS011;53228;51.380;0.098;2022-07-29T00:09:50;6.28;;;2.70;;
66421;SDS011;53228;51.380;0.098;2022-07-29T00:12:19;5.25;;;2.65;;
66421;SDS011;53228;51.380;0.098;2022-07-29T00:14:53;7.18;;;2.92;;
66421;SDS011;53228;51.380;0.098;2022-07-29T00:17:22;5.32;;;2.60;;
66421;SDS011;53228;51.380;0.098;2022-07-29T00:19:51;4.80;;;2.38;;
66421;SDS011;53228;51.380;0.098;2022-07-29T00:22:19;8.82;;;2.92;;
66421;SDS011;53228;51.380;0.098;2022-07-29T00:24:47;6.88;;;3.78;;
66421;SDS011;53228;51.380;0.098;2022-07-29T00:27:16;7.90;;;3.45;;
66421;SDS011;53228;51.380;0.098;2022-07-29T00:29:44;5.05;;;2.72;;
66421;SDS011;53228;51.380;0.098;2022-07-29T00:32:11;6.85;;;2.70;;
66421;SDS011;53228;51.380;0.098;2022-07-29T00:34:39;6.45;;;2.60;;
66421;SDS011;53228;51.380;0.098;2022-07-29T00:37:25;11.10;;;2.47;;
66421;SDS011;53228;51.380;0.098;2022-07-29T00:39:53;6.85;;;2.28;;
66421;SDS011;53228;51.380;0.098;2022-07-29T00:42:20;3.63;;;1.80;;
66421;SDS011;53228;51.380;0.098;2022-07-29T00:44:48;4.63;;;2.33;;
66421;SDS011;53228;51.380;0.098;2022-07-29T00:47:16;3.35;;;2.25;;
66421;SDS011;53228;51.380;0.098;2022-07-29T00:49:43;4.88;;;1.95;;
66421;SDS011;53228;51.380;0.098;2022-07-29T00:52:11;5.15;;;2.10;;
66421;SDS011;53228;51.380;0.098;2022-07-29T00:54:43;9.32;;;2.90;;
66421;SDS011;53228;51.380;0.098;2022-07-29T00:57:11;2.88;;;1.95;;
66421;SDS011;53228;51.380;0.098;2022-07-29T00:59:39;8.05;;;2.33;;
66421;SDS011;53228;51.380;0.098;2022-07-29T01:02:07;3.60;;;2.35;;
66421;SDS011;53228;51.380;0.098;2022-07-29T01:04:34;7.82;;;2.50;;
66421;SDS011;53228;51.380;0.098;2022-07-29T01:07:02;5.63;;;2.47;;
66421;SDS011;53228;51.380;0.098;2022-07-29T01:09:31;6.22;;;2.40;;
66421;SDS011;53228;51.380;0.098;2022-07-29T01:12:16;6.07;;;2.33;;
66421;SDS011;53228;51.380;0.098;2022-07-29T01:14:48;5.32;;;2.17;;
66421;SDS011;53228;51.380;0.098;2022-07-29T01:17:28;4.50;;;1.77;;
66421;SDS011;53228;51.380;0.098;2022-07-29T01:20:06;2.60;;;1.65;;
66421;SDS011;53228;51.380;0.098;2022-07-29T01:22:44;4.68;;;2.40;;
66421;SDS011;53228;51.380;0.098;2022-07-29T01:28:47;6.45;;;2.13;;
66421;SDS011;53228;51.380;0.098;2022-07-29T01:31:22;8.63;;;2.35;;
66421;SDS011;53228;51.380;0.098;2022-07-29T01:34:03;2.72;;;1.63;;
66421;SDS011;53228;51.380;0.098;2022-07-29T01:36:40;9.93;;;1.73;;
66421;SDS011;53228;51.380;0.098;2022-07-29T01:39:36;5.82;;;1.75;;
66421;SDS011;53228;51.380;0.098;2022-07-29T01:42:07;4.95;;;2.10;;
66421;SDS011;53228;51.380;0.098;2022-07-29T01:45:00;4.15;;;1.63;;
66421;SDS011;53228;51.380;0.098;2022-07-29T01:47:39;7.07;;;1.75;;
66421;SDS011;53228;51.380;0.098;2022-07-29T01:50:10;3.13;;;1.67;;
66421;SDS011;53228;51.380;0.098;2022-07-29T01:52:52;7.22;;;1.90;;
66421;SDS011;53228;51.380;0.098;2022-07-29T01:55:27;6.65;;;2.13;;
66421;SDS011;53228;51.380;0.098;2022-07-29T01:57:58;5.78;;;2.10;;
66421;SDS011;53228;51.380;0.098;2022-07-29T02:00:27;5.22;;;2.00;;
66421;SDS011;53228;51.380;0.098;2022-07-29T02:02:58;7.10;;;2.00;;
66421;SDS011;53228;51.380;0.098;2022-07-29T02:05:38;4.72;;;1.60;;
66421;SDS011;53228;51.380;0.098;2022-07-29T02:08:09;3.85;;;1.70;;
66421;SDS011;53228;51.380;0.098;2022-07-29T02:10:38;4.22;;;1.80;;
66421;SDS011;53228;51.380;0.098;2022-07-29T02:13:09;4.60;;;2.22;;
66421;SDS011;53228;51.380;0.098;2022-07-29T02:15:38;4.72;;;1.70;;
66421;SDS011;53228;51.380;0.098;2022-07-29T02:18:18;4.40;;;1.80;;
66421;SDS011;53228;51.380;0.098;2022-07-29T02:20:50;8.75;;;2.35;;
66421;SDS011;53228;51.380;0.098;2022-07-29T02:23:20;3.15;;;2.08;;
66421;SDS011;53228;51.380;0.098;2022-07-29T02:25:55;5.45;;;1.77;;
66421;SDS011;53228;51.380;0.098;2022-07-29T02:28:24;2.72;;;1.70;;
66421;SDS011;53228;51.380;0.098;2022-07-29T02:30:59;6.20;;;2.03;;
66421;SDS011;53228;51.380;0.098;2022-07-29T02:33:29;5.18;;;1.92;;
66421;SDS011;53228;51.380;0.098;2022-07-29T02:35:58;4.38;;;1.80;;
66421;SDS011;53228;51.380;0.098;2022-07-29T02:38:27;6.00;;;1.52;;
66421;SDS011;53228;51.380;0.098;2022-07-29T02:41:16;3.25;;;1.52;;
66421;SDS011;53228;51.380;0.098;2022-07-29T02:43:47;9.45;;;1.90;;
66421;SDS011;53228;51.380;0.098;2022-07-29T02:46:21;5.28;;;1.58;;
66421;SDS011;53228;51.380;0.098;2022-07-29T02:49:09;4.78;;;1.75;;
66421;SDS011;53228;51.380;0.098;2022-07-29T02:52:05;4.63;;;1.55;;
66421;SDS011;53228;51.380;0.098;2022-07-29T02:54:42;3.03;;;1.70;;
66421;SDS011;53228;51.380;0.098;2022-07-29T02:57:33;4.32;;;1.80;;
66421;SDS011;53228;51.380;0.098;2022-07-29T03:00:22;3.45;;;2.00;;
66421;SDS011;53228;51.380;0.098;2022-07-29T03:02:55;2.60;;;1.80;;
66421;SDS011;53228;51.380;0.098;2022-07-29T03:05:25;5.45;;;1.80;;
66421;SDS011;53228;51.380;0.098;2022-07-29T03:07:58;6.80;;;2.17;;
66421;SDS011;53228;51.380;0.098;2022-07-29T03:10:30;7.10;;;1.80;;
66421;SDS011;53228;51.380;0.098;2022-07-29T03:12:58;3.75;;;1.77;;
66421;SDS011;53228;51.380;0.098;2022-07-29T03:15:27;4.70;;;2.13;;
66421;SDS011;53228;51.380;0.098;2022-07-29T03:17:55;4.05;;;1.90;;
66421;SDS011;53228;51.380;0.098;2022-07-29T03:20:27;4.03;;;2.05;;
66421;SDS011;53228;51.380;0.098;2022-07-29T03:22:55;3.95;;;2.05;;
66421;SDS011;53228;51.380;0.098;2022-07-29T03:25:22;6.05;;;1.95;;
66421;SDS011;53228;51.380;0.098;2022-07-29T03:27:50;4.82;;;1.60;;
66421;SDS011;53228;51.380;0.098;2022-07-29T03:30:18;7.53;;;2.33;;
66421;SDS011;53228;51.380;0.098;2022-07-29T03:32:48;3.97;;;2.20;;
66421;SDS011;53228;51.380;0.098;2022-07-29T03:35:19;4.07;;;2.60;;
66421;SDS011;53228;51.380;0.098;2022-07-29T03:37:47;4.22;;;2.38;;
66421;SDS011;53228;51.380;0.098;2022-07-29T03:40:22;4.68;;;2.22;;
66421;SDS011;53228;51.380;0.098;2022-07-29T03:42:52;5.50;;;2.40;;
66421;SDS011;53228;51.380;0.098;2022-07-29T03:45:22;3.60;;;2.38;;
66421;SDS011;53228;51.380;0.098;2022-07-29T03:47:53;4.70;;;2.25;;
66421;SDS011;53228;51.380;0.098;2022-07-29T03:50:27;6.72;;;2.25;;
66421;SDS011;53228;51.380;0.098;2022-07-29T03:52:56;4.45;;;2.40;;
66421;SDS011;53228;51.380;0.098;2022-07-29T03:55:25;4.70;;;2.42;;
66421;SDS011;53228;51.380;0.098;2022-07-29T03:57:55;7.63;;;2.40;;
66421;SDS011;53228;51.380;0.098;2022-07-29T04:00:24;4.97;;;2.88;;
66421;SDS011;53228;51.380;0.098;2022-07-29T04:02:52;4.60;;;2.60;;
66421;SDS011;53228;51.380;0.098;2022-07-29T04:05:20;3.90;;;2.45;;
66421;SDS011;53228;51.380;0.098;2022-07-29T04:07:48;4.93;;;2.30;;
66421;SDS011;53228;51.380;0.098;2022-07-29T04:10:16;2.85;;;2.10;;
66421;SDS011;53228;51.380;0.098;2022-07-29T04:12:58;4.75;;;2.22;;
66421;SDS011;53228;51.380;0.098;2022-07-29T04:15:27;8.68;;;2.35;;
66421;SDS011;53228;51.380;0.098;2022-07-29T04:17:58;4.13;;;2.15;;
66421;SDS011;53228;51.380;0.098;2022-07-29T04:20:26;4.95;;;2.65;;
66421;SDS011;53228;51.380;0.098;2022-07-29T04:22:54;6.82;;;2.10;;
66421;SDS011;53228;51.380;0.098;2022-07-29T04:25:21;3.47;;;2.30;;
66421;SDS011;53228;51.380;0.098;2022-07-29T04:27:49;6.97;;;2.45;;
66421;SDS011;53228;51.380;0.098;2022-07-29T04:30:30;4.25;;;2.92;;
66421;SDS011;53228;51.380;0.098;2022-07-29T04:32:59;3.17;;;2.17;;
66421;SDS011;53228;51.380;0.098;2022-07-29T04:35:29;7.25;;;2.60;;
66421;SDS011;53228;51.380;0.098;2022-07-29T04:38:04;3.90;;;2.40;;
66421;SDS011;53228;51.380;0.098;2022-07-29T04:40:41;5.60;;;2.70;;
66421;SDS011;53228;51.380;0.098;2022-07-29T04:43:09;2.85;;;2.00;;
66421;SDS011;53228;51.380;0.098;2022-07-29T04:45:40;6.78;;;2.00;;
66421;SDS011;53228;51.380;0.098;2022-07-29T04:48:08;4.07;;;2.38;;
66421;SDS011;53228;51.380;0.098;2022-07-29T04:50:39;5.03;;;2.72;;
66421;SDS011;53228;51.380;0.098;2022-07-29T04:53:07;4.43;;;2.40;;
66421;SDS011;53228;51.380;0.098;2022-07-29T04:55:34;6.00;;;2.50;;
66421;SDS011;53228;51.380;0.098;2022-07-29T04:58:05;9.90;;;2.63;;
66421;SDS011;53228;51.380;0.098;2022-07-29T05:00:32;4.20;;;1.98;;
66421;SDS011;53228;51.380;0.098;2022-07-29T05:03:01;4.75;;;2.10;;
66421;SDS011;53228;51.380;0.098;2022-07-29T05:05:29;3.55;;;2.28;;
66421;SDS011;53228;51.380;0.098;2022-07-29T05:07:57;4.95;;;2.33;;
66421;SDS011;53228;51.380;0.098;2022-07-29T05:10:25;4.55;;;2.20;;
66421;SDS011;53228;51.380;0.098;2022-07-29T05:12:53;3.25;;;2.40;;
66421;SDS011;53228;51.380;0.098;2022-07-29T05:15:20;4.90;;;2.88;;
66421;SDS011;53228;51.380;0.098;2022-07-29T05:17:48;6.60;;;3.30;;
66421;SDS011;53228;51.380;0.098;2022-07-29T05:20:15;4.18;;;2.40;;
66421;SDS011;53228;51.380;0.098;2022-07-29T05:22:43;6.15;;;2.30;;
66421;SDS011;53228;51.380;0.098;2022-07-29T05:25:11;8.57;;;2.75;;
66421;SDS011;53228;51.380;0.098;2022-07-29T05:27:38;4.22;;;2.65;;
66421;SDS011;53228;51.380;0.098;2022-07-29T05:30:06;7.68;;;2.92;;
66421;SDS011;53228;51.380;0.098;2022-07-29T05:32:34;4.70;;;2.47;;
66421;SDS011;53228;51.380;0.098;2022-07-29T05:35:02;8.98;;;2.63;;
66421;SDS011;53228;51.380;0.098;2022-07-29T05:37:29;3.78;;;2.50;;
66421;SDS011;53228;51.380;0.098;2022-07-29T05:39:57;4.47;;;2.63;;
66421;SDS011;53228;51.380;0.098;2022-07-29T05:42:26;5.07;;;2.25;;
66421;SDS011;53228;51.380;0.098;2022-07-29T05:44:53;3.63;;;2.35;;
66421;SDS011;53228;51.380;0.098;2022-07-29T05:47:21;4.72;;;2.40;;
66421;SDS011;53228;51.380;0.098;2022-07-29T05:49:51;3.90;;;2.60;;
66421;SDS011;53228;51.380;0.098;2022-07-29T05:52:18;5.15;;;2.40;;
66421;SDS011;53228;51.380;0.098;2022-07-29T05:54:46;9.73;;;3.35;;
66421;SDS011;53228;51.380;0.098;2022-07-29T05:57:16;5.60;;;2.60;;
66421;SDS011;53228;51.380;0.098;2022-07-29T05:59:48;5.22;;;2.50;;
66421;SDS011;53228;51.380;0.098;2022-07-29T06:02:16;11.00;;;3.13;;
66421;SDS011;53228;51.380;0.098;2022-07-29T06:04:44;5.97;;;2.55;;
66421;SDS011;53228;51.380;0.098;2022-07-29T06:07:12;8.88;;;3.25;;
66421;SDS011;53228;51.380;0.098;2022-07-29T06:09:40;5.07;;;2.70;;
66421;SDS011;53228;51.380;0.098;2022-07-29T06:12:07;5.43;;;2.85;;
66421;SDS011;53228;51.380;0.098;2022-07-29T06:14:35;6.00;;;2.85;;
66421;SDS011;53228;51.380;0.098;2022-07-29T06:17:04;9.70;;;2.50;;
66421;SDS011;53228;51.380;0.098;2022-07-29T06:19:35;6.10;;;2.25;;
66421;SDS011;53228;51.380;0.098;2022-07-29T06:22:03;7.28;;;2.42;;
66421;SDS011;53228;51.380;0.098;2022-07-29T06:24:31;4.53;;;2.20;;
66421;SDS011;53228;51.380;0.098;2022-07-29T06:26:59;9.18;;;2.55;;
66421;SDS011;53228;51.380;0.098;2022-07-29T06:29:26;8.48;;;3.35;;
66421;SDS011;53228;51.380;0.098;2022-07-29T06:31:54;6.53;;;2.83;;
66421;SDS011;53228;51.380;0.098;2022-07-29T06:34:21;4.75;;;3.10;;
66421;SDS011;53228;51.380;0.098;2022-07-29T06:36:49;5.78;;;3.20;;
66421;SDS011;53228;51.380;0.098;2022-07-29T06:39:18;4.35;;;2.83;;
66421;SDS011;53228;51.380;0.098;2022-07-29T06:41:46;11.13;;;3.00;;
66421;SDS011;53228;51.380;0.098;2022-07-29T06:44:23;9.70;;;2.75;;
66421;SDS011;53228;51.380;0.098;2022-07-29T06:46:51;11.98;;;3.10;;
66421;SDS011;53228;51.380;0.098;2022-07-29T06:49:19;8.93;;;2.90;;
66421;SDS011;53228;51.380;0.098;2022-07-29T06:51:47;5.10;;;2.65;;
66421;SDS011;53228;51.380;0.098;2022-07-29T06:54:14;5.15;;;3.10;;
66421;SDS011;53228;51.380;0.098;2022-07-29T06:56:43;10.10;;;2.90;;
66421;SDS011;53228;51.380;0.098;2022-07-29T06:59:11;3.70;;;2.72;;
66421;SDS011;53228;51.380;0.098;2022-07-29T07:01:40;7.95;;;2.90;;
66421;SDS011;53228;51.380;0.098;2022-07-29T07:06:37;6.93;;;2.95;;
66421;SDS011;53228;51.380;0.098;2022-07-29T07:09:05;6.45;;;3.33;;
66421;SDS011;53228;51.380;0.098;2022-07-29T07:11:33;12.10;;;2.85;;
66421;SDS011;53228;51.380;0.098;2022-07-29T07:14:00;6.47;;;2.90;;
66421;SDS011;53228;51.380;0.098;2022-07-29T07:16:40;10.68;;;2.63;;
66421;SDS011;53228;51.380;0.098;2022-07-29T07:19:08;7.43;;;3.22;;
66421;SDS011;53228;51.380;0.098;2022-07-29T07:21:35;12.60;;;3.45;;
66421;SDS011;53228;51.380;0.098;2022-07-29T07:24:03;8.38;;;3.03;;
66421;SDS011;53228;51.380;0.098;2022-07-29T07:26:31;6.68;;;2.60;;
66421;SDS011;53228;51.380;0.098;2022-07-29T07:28:59;8.05;;;2.88;;
66421;SDS011;53228;51.380;0.098;2022-07-29T07:31:27;9.95;;;3.13;;
66421;SDS011;53228;51.380;0.098;2022-07-29T07:33:54;9.13;;;3.80;;
66421;SDS011;53228;51.380;0.098;2022-07-29T07:36:22;14.35;;;3.53;;
66421;SDS011;53228;51.380;0.098;2022-07-29T07:38:50;7.43;;;2.97;;
66421;SDS011;53228;51.380;0.098;2022-07-29T07:41:17;7.75;;;3.20;;
66421;SDS011;53228;51.380;0.098;2022-07-29T07:43:45;11.02;;;2.75;;
66421;SDS011;53228;51.380;0.098;2022-07-29T07:46:13;8.75;;;3.00;;
66421;SDS011;53228;51.380;0.098;2022-07-29T07:48:41;10.45;;;2.75;;
66421;SDS011;53228;51.380;0.098;2022-07-29T07:51:09;6.72;;;3.15;;
66421;SDS011;53228;51.380;0.098;2022-07-29T07:53:36;5.88;;;2.20;;
66421;SDS011;53228;51.380;0.098;2022-07-29T07:56:04;7.38;;;2.80;;
66421;SDS011;53228;51.380;0.098;2022-07-29T07:58:37;7.32;;;3.03;;
66421;SDS011;53228;51.380;0.098;2022-07-29T08:01:05;8.10;;;2.67;;
66421;SDS011;53228;51.380;0.098;2022-07-29T08:03:33;5.30;;;2.63;;
66421;SDS011;53228;51.380;0.098;2022-07-29T08:06:02;10.35;;;2.95;;
66421;SDS011;53228;51.380;0.098;2022-07-29T08:08:30;7.50;;;3.15;;
66421;SDS011;53228;51.380;0.098;2022-07-29T08:10:58;8.18;;;2.53;;
66421;SDS011;53228;51.380;0.098;2022-07-29T08:13:34;6.72;;;2.60;;
66421;SDS011;53228;51.380;0.098;2022-07-29T08:16:02;8.15;;;2.22;;
66421;SDS011;53228;51.380;0.098;2022-07-29T08:18:40;7.72;;;2.53;;
66421;SDS011;53228;51.380;0.098;2022-07-29T08:21:09;5.25;;;1.80;;
66421;SDS011;53228;51.380;0.098;2022-07-29T08:23:41;7.40;;;2.10;;
66421;SDS011;53228;51.380;0.098;2022-07-29T08:26:25;8.32;;;2.05;;
66421;SDS011;53228;51.380;0.098;2022-07-29T08:28:53;7.15;;;2.20;;
66421;SDS011;53228;51.380;0.098;2022-07-29T08:31:21;4.60;;;1.95;;
66421;SDS011;53228;51.380;0.098;2022-07-29T08:33:48;4.75;;;2.00;;
66421;SDS011;53228;51.380;0.098;2022-07-29T08:36:16;4.85;;;1.55;;
66421;SDS011;53228;51.380;0.098;2022-07-29T08:38:43;5.07;;;2.10;;
66421;SDS011;53228;51.380;0.098;2022-07-29T08:41:11;6.88;;;2.20;;
66421;SDS011;53228;51.380;0.098;2022-07-29T08:43:39;5.53;;;1.85;;
66421;SDS011;53228;51.380;0.098;2022-07-29T08:46:08;3.17;;;2.08;;
66421;SDS011;53228;51.380;0.098;2022-07-29T08:48:35;8.05;;;2.05;;
66421;SDS011;53228;51.380;0.098;2022-07-29T08:51:03;4.55;;;1.75;;
66421;SDS011;53228;51.380;0.098;2022-07-29T08:53:33;14.85;;;1.75;;
66421;SDS011;53228;51.380;0.098;2022-07-29T08:56:01;3.00;;;1.40;;
66421;SDS011;53228;51.380;0.098;2022-07-29T08:58:31;4.53;;;1.30;;
66421;SDS011;53228;51.380;0.098;2022-07-29T09:01:04;4.82;;;1.75;;
66421;SDS011;53228;51.380;0.098;2022-07-29T09:03:38;3.80;;;1.20;;
66421;SDS011;53228;51.380;0.098;2022-07-29T09:06:07;3.13;;;1.40;;
66421;SDS011;53228;51.380;0.098;2022-07-29T09:08:35;3.95;;;1.38;;
66421;SDS011;53228;51.380;0.098;2022-07-29T09:11:03;5.85;;;1.17;;
66421;SDS011;53228;51.380;0.098;2022-07-29T09:13:31;2.67;;;1.40;;
66421;SDS011;53228;51.380;0.098;2022-07-29T09:16:00;4.35;;;1.42;;
66421;SDS011;53228;51.380;0.098;2022-07-29T09:18:36;4.68;;;1.75;;
66421;SDS011;53228;51.380;0.098;2022-07-29T09:21:06;6.13;;;1.60;;
66421;SDS011;53228;51.380;0.098;2022-07-29T09:26:35;6.60;;;1.70;;
66421;SDS011;53228;51.380;0.098;2022-07-29T09:29:10;7.10;;;1.73;;
66421;SDS011;53228;51.380;0.098;2022-07-29T09:31:41;8.55;;;1.60;;
66421;SDS011;53228;51.380;0.098;2022-07-29T09:34:15;4.10;;;1.48;;
66421;SDS011;53228;51.380;0.098;2022-07-29T09:36:45;3.22;;;1.50;;
66421;SDS011;53228;51.380;0.098;2022-07-29T09:41:51;3.55;;;1.55;;
66421;SDS011;53228;51.380;0.098;2022-07-29T09:44:20;8.55;;;1.63;;
66421;SDS011;53228;51.380;0.098;2022-07-29T09:46:56;8.00;;;1.90;;
66421;SDS011;53228;51.380;0.098;2022-07-29T09:49:35;6.63;;;1.50;;
66421;SDS011;53228;51.380;0.098;2022-07-29T09:52:16;10.32;;;1.70;;
66421;SDS011;53228;51.380;0.098;2022-07-29T09:54:44;5.22;;;1.60;;
66421;SDS011;53228;51.380;0.098;2022-07-29T09:57:23;5.03;;;1.85;;
66421;SDS011;53228;51.380;0.098;2022-07-29T10:02:27;4.25;;;1.95;;
66421;SDS011;53228;51.380;0.098;2022-07-29T10:07:24;3.97;;;1.40;;
66421;SDS011;53228;51.380;0.098;2022-07-29T10:09:52;3.75;;;1.85;;
66421;SDS011;53228;51.380;0.098;2022-07-29T10:12:21;3.75;;;1.27;;
66421;SDS011;53228;51.380;0.098;2022-07-29T10:14:50;7.63;;;2.00;;
66421;SDS011;53228;51.380;0.098;2022-07-29T10:17:18;5.55;;;2.08;;
66421;SDS011;53228;51.380;0.098;2022-07-29T10:19:47;1.70;;;1.13;;
66421;SDS011;53228;51.380;0.098;2022-07-29T10:22:16;7.90;;;1.60;;
66421;SDS011;53228;51.380;0.098;2022-07-29T10:25:04;8.02;;;1.88;;
66421;SDS011;53228;51.380;0.098;2022-07-29T10:27:32;6.50;;;1.52;;
66421;SDS011;53228;51.380;0.098;2022-07-29T10:29:59;2.65;;;1.50;;
66421;SDS011;53228;51.380;0.098;2022-07-29T10:41:32;5.18;;;1.70;;
66421;SDS011;53228;51.380;0.098;2022-07-29T10:44:19;2.42;;;1.60;;
66421;SDS011;53228;51.380;0.098;2022-07-29T10:46:50;4.10;;;1.67;;
66421;SDS011;53228;51.380;0.098;2022-07-29T10:49:19;4.75;;;1.80;;
66421;SDS011;53228;51.380;0.098;2022-07-29T10:51:58;2.70;;;1.73;;
66421;SDS011;53228;51.380;0.098;2022-07-29T10:57:19;7.45;;;1.92;;
66421;SDS011;53228;51.380;0.098;2022-07-29T11:05:14;5.63;;;1.55;;
66421;SDS011;53228;51.380;0.098;2022-07-29T11:10:50;7.28;;;1.80;;
66421;SDS011;53228;51.380;0.098;2022-07-29T11:16:10;3.75;;;1.50;;
66421;SDS011;53228;51.380;0.098;2022-07-29T11:21:58;4.05;;;1.23;;
66421;SDS011;53228;51.380;0.098;2022-07-29T11:24:28;1.95;;;1.05;;
66421;SDS011;53228;51.380;0.098;2022-07-29T11:27:15;4.40;;;1.30;;
66421;SDS011;53228;51.380;0.098;2022-07-29T11:29:55;4.10;;;1.40;;
66421;SDS011;53228;51.380;0.098;2022-07-29T11:32:36;4.47;;;1.30;;
66421;SDS011;53228;51.380;0.098;2022-07-29T11:37:44;3.03;;;1.58;;
66421;SDS011;53228;51.380;0.098;2022-07-29T11:40:23;5.72;;;1.33;;
66421;SDS011;53228;51.380;0.098;2022-07-29T11:42:51;2.13;;;1.20;;
66421;SDS011;53228;51.380;0.098;2022-07-29T11:45:20;6.80;;;1.40;;
66421;SDS011;53228;51.380;0.098;2022-07-29T11:48:14;3.28;;;1.42;;
66421;SDS011;53228;51.380;0.098;2022-07-29T11:50:58;3.75;;;1.38;;
66421;SDS011;53228;51.380;0.098;2022-07-29T11:53:26;2.40;;;1.25;;
66421;SDS011;53228;51.380;0.098;2022-07-29T11:55:59;4.72;;;1.30;;
66421;SDS011;53228;51.380;0.098;2022-07-29T11:58:28;3.80;;;1.60;;
66421;SDS011;53228;51.380;0.098;2022-07-29T12:00:57;3.15;;;1.10;;
66421;SDS011;53228;51.380;0.098;2022-07-29T12:03:31;4.13;;;1.60;;
66421;SDS011;53228;51.380;0.098;2022-07-29T12:06:03;5.45;;;1.27;;
66421;SDS011;53228;51.380;0.098;2022-07-29T12:08:41;1.63;;;0.98;;
66421;SDS011;53228;51.380;0.098;2022-07-29T12:11:17;3.67;;;1.35;;
66421;SDS011;53228;51.380;0.098;2022-07-29T12:13:48;2.08;;;1.30;;
66421;SDS011;53228;51.380;0.098;2022-07-29T12:16:20;5.90;;;1.45;;
66421;SDS011;53228;51.380;0.098;2022-07-29T12:18:56;4.32;;;1.50;;
66421;SDS011;53228;51.380;0.098;2022-07-29T12:21:25;3.35;;;1.50;;
66421;SDS011;53228;51.380;0.098;2022-07-29T12:23:55;2.67;;;1.30;;
66421;SDS011;53228;51.380;0.098;2022-07-29T12:26:35;5.10;;;1.42;;
66421;SDS011;53228;51.380;0.098;2022-07-29T12:29:15;4.43;;;1.65;;
66421;SDS011;53228;51.380;0.098;2022-07-29T12:31:59;2.75;;;1.30;;
66421;SDS011;53228;51.380;0.098;2022-07-29T12:34:28;5.70;;;1.55;;
66421;SDS011;53228;51.380;0.098;2022-07-29T12:36:56;2.55;;;1.38;;
66421;SDS011;53228;51.380;0.098;2022-07-29T12:39:23;2.58;;;1.58;;
66421;SDS011;53228;51.380;0.098;2022-07-29T12:44:49;3.88;;;1.40;;
66421;SDS011;53228;51.380;0.098;2022-07-29T12:47:19;1.50;;;1.20;;
66421;SDS011;53228;51.380;0.098;2022-07-29T12:49:48;3.83;;;1.48;;
66421;SDS011;53228;51.380;0.098;2022-07-29T12:52:34;1.80;;;1.30;;
66421;SDS011;53228;51.380;0.098;2022-07-29T12:55:02;4.60;;;1.60;;
66421;SDS011;53228;51.380;0.098;2022-07-29T12:57:30;1.83;;;1.33;;
66421;SDS011;53228;51.380;0.098;2022-07-29T12:59:59;4.43;;;1.20;;
66421;SDS011;53228;51.380;0.098;2022-07-29T13:02:31;5.20;;;1.70;;
66421;SDS011;53228;51.380;0.098;2022-07-29T13:04:59;2.15;;;1.10;;
66421;SDS011;53228;51.380;0.098;2022-07-29T13:07:29;3.17;;;1.55;;
66421;SDS011;53228;51.380;0.098;2022-07-29T13:10:20;2.20;;;1.23;;
66421;SDS011;53228;51.380;0.098;2022-07-29T13:13:10;3.63;;;1.40;;
66421;SDS011;53228;51.380;0.098;2022-07-29T13:15:40;4.10;;;1.70;;
66421;SDS011;53228;51.380;0.098;2022-07-29T13:21:10;3.60;;;1.30;;
66421;SDS011;53228;51.380;0.098;2022-07-29T13:23:39;2.85;;;1.30;;
66421;SDS011;53228;51.380;0.098;2022-07-29T13:26:07;4.88;;;1.30;;
66421;SDS011;53228;51.380;0.098;2022-07-29T13:28:36;4.03;;;1.50;;
66421;SDS011;53228;51.380;0.098;2022-07-29T13:31:04;6.20;;;1.50;;
66421;SDS011;53228;51.380;0.098;2022-07-29T13:33:32;5.57;;;1.42;;
66421;SDS011;53228;51.380;0.098;2022-07-29T13:35:59;5.25;;;1.23;;
66421;SDS011;53228;51.380;0.098;2022-07-29T13:38:27;6.20;;;1.58;;
66421;SDS011;53228;51.380;0.098;2022-07-29T13:40:57;2.40;;;1.73;;
66421;SDS011;53228;51.380;0.098;2022-07-29T13:43:25;5.28;;;1.60;;
66421;SDS011;53228;51.380;0.098;2022-07-29T13:45:53;3.05;;;1.42;;
66421;SDS011;53228;51.380;0.098;2022-07-29T13:48:20;3.78;;;1.33;;
66421;SDS011;53228;51.380;0.098;2022-07-29T13:50:48;2.38;;;1.30;;
66421;SDS011;53228;51.380;0.098;2022-07-29T13:53:15;3.65;;;1.48;;
66421;SDS011;53228;51.380;0.098;2022-07-29T13:55:44;2.53;;;1.30;;
66421;SDS011;53228;51.380;0.098;2022-07-29T13:58:11;3.97;;;1.20;;
66421;SDS011;53228;51.380;0.098;2022-07-29T14:00:39;2.72;;;1.30;;
66421;SDS011;53228;51.380;0.098;2022-07-29T14:03:07;1.88;;;1.10;;
66421;SDS011;53228;51.380;0.098;2022-07-29T14:05:34;2.92;;;1.30;;
66421;SDS011;53228;51.380;0.098;2022-07-29T14:08:02;2.22;;;1.38;;
66421;SDS011;53228;51.380;0.098;2022-07-29T14:10:29;3.90;;;1.23;;
66421;SDS011;53228;51.380;0.098;2022-07-29T14:12:57;5.05;;;1.30;;
66421;SDS011;53228;51.380;0.098;2022-07-29T14:15:24;3.45;;;1.30;;
66421;SDS011;53228;51.380;0.098;2022-07-29T14:17:52;6.10;;;1.45;;
66421;SDS011;53228;51.380;0.098;2022-07-29T14:20:19;1.88;;;1.10;;
66421;SDS011;53228;51.380;0.098;2022-07-29T14:22:47;2.72;;;1.10;;
66421;SDS011;53228;51.380;0.098;2022-07-29T14:25:16;6.13;;;1.38;;
66421;SDS011;53228;51.380;0.098;2022-07-29T14:27:47;5.70;;;1.60;;
66421;SDS011;53228;51.380;0.098;2022-07-29T14:30:14;3.40;;;1.10;;
66421;SDS011;53228;51.380;0.098;2022-07-29T14:32:43;2.75;;;1.10;;
66421;SDS011;53228;51.380;0.098;2022-07-29T14:35:10;4.95;;;1.55;;
66421;SDS011;53228;51.380;0.098;2022-07-29T14:37:38;4.13;;;1.23;;
66421;SDS011;53228;51.380;0.098;2022-07-29T14:40:07;8.65;;;1.27;;
66421;SDS011;53228;51.380;0.098;2022-07-29T14:42:36;2.65;;;1.25;;
66421;SDS011;53228;51.380;0.098;2022-07-29T14:45:05;2.72;;;1.13;;
66421;SDS011;53228;51.380;0.098;2022-07-29T14:50:01;3.35;;;1.40;;
66421;SDS011;53228;51.380;0.098;2022-07-29T14:52:29;3.17;;;1.20;;
66421;SDS011;53228;51.380;0.098;2022-07-29T14:54:57;1.52;;;0.95;;
66421;SDS011;53228;51.380;0.098;2022-07-29T14:57:24;1.90;;;1.10;;
66421;SDS011;53228;51.380;0.098;2022-07-29T14:59:52;1.73;;;1.02;;
66421;SDS011;53228;51.380;0.098;2022-07-29T15:02:20;6.53;;;1.20;;
66421;SDS011;53228;51.380;0.098;2022-07-29T15:04:47;2.22;;;1.00;;
66421;SDS011;53228;51.380;0.098;2022-07-29T15:07:15;2.60;;;0.85;;
66421;SDS011;53228;51.380;0.098;2022-07-29T15:09:42;1.92;;;1.10;;
66421;SDS011;53228;51.380;0.098;2022-07-29T15:12:15;3.40;;;1.13;;
66421;SDS011;53228;51.380;0.098;2022-07-29T15:14:43;2.55;;;1.20;;
66421;SDS011;53228;51.380;0.098;2022-07-29T15:17:11;3.53;;;1.30;;
66421;SDS011;53228;51.380;0.098;2022-07-29T15:19:38;4.28;;;1.05;;
66421;SDS011;53228;51.380;0.098;2022-07-29T15:22:11;3.45;;;0.90;;
66421;SDS011;53228;51.380;0.098;2022-07-29T15:24:38;4.05;;;1.10;;
66421;SDS011;53228;51.380;0.098;2022-07-29T15:27:06;4.15;;;1.23;;
66421;SDS011;53228;51.380;0.098;2022-07-29T15:29:34;3.42;;;1.15;;
66421;SDS011;53228;51.380;0.098;2022-07-29T15:32:02;3.20;;;1.25;;
66421;SDS011;53228;51.380;0.098;2022-07-29T15:34:31;3.70;;;1.35;;
66421;SDS011;53228;51.380;0.098;2022-07-29T15:36:59;3.40;;;1.40;;
66421;SDS011;53228;51.380;0.098;2022-07-29T15:39:26;4.50;;;1.38;;
66421;SDS011;53228;51.380;0.098;2022-07-29T15:41:54;1.55;;;1.17;;
66421;SDS011;53228;51.380;0.098;2022-07-29T15:44:22;3.83;;;1.27;;
66421;SDS011;53228;51.380;0.098;2022-07-29T15:46:50;3.22;;;1.40;;
66421;SDS011;53228;51.380;0.098;2022-07-29T15:49:30;3.40;;;1.60;;
66421;SDS011;53228;51.380;0.098;2022-07-29T15:52:15;1.95;;;1.30;;
66421;SDS011;53228;51.380;0.098;2022-07-29T15:54:55;4.10;;;1.40;;
66421;SDS011;53228;51.380;0.098;2022-07-29T15:57:24;2.95;;;1.73;;
66421;SDS011;53228;51.380;0.098;2022-07-29T15:59:52;6.32;;;1.77;;
66421;SDS011;53228;51.380;0.098;2022-07-29T16:02:20;2.25;;;1.48;;
66421;SDS011;53228;51.380;0.098;2022-07-29T16:04:47;1.88;;;1.23;;